Time;durP1;ratioP1;P1;durP2;ratioP2;P2;SDS_P1;SDS_P2;PMS_P1;PMS_P2;Temp;Humidity;BMP_temperature;BMP_pressure;BME280_temperature;BME280_humidity;BME280_pressure;Samples;Min_cycle;Max_cycle;Signal;HPM_P1;HPM_P2
2022/02/08 00:01:08;;;;;;;11.43;2.05;;;;;;;3.33;100.00;102081.50;4973536;28;20053;-75
2022/02/08 00:03:34;;;;;;;19.75;2.95;;;;;;;3.36;100.00;102091.75;4979370;28;20397;-75
2022/02/08 00:08:25;;;;;;;20.35;2.42;;;;;;;3.31;100.00;102081.59;4995167;28;20406;-75
2022/02/08 00:10:50;;;;;;;17.38;2.67;;;;;;;3.27;100.00;102080.00;4986198;28;20424;-75
2022/02/08 00:13:16;;;;;;;16.88;2.55;;;;;;;3.31;100.00;102078.13;4989230;28;20042;-74
2022/02/08 00:15:41;;;;;;;15.05;2.67;;;;;;;3.22;100.00;102071.59;4974876;28;20058;-74
2022/02/08 00:18:07;;;;;;;18.67;2.47;;;;;;;3.24;100.00;102074.09;4973038;28;20703;-75
2022/02/08 00:20:32;;;;;;;15.57;2.92;;;;;;;3.26;100.00;102069.72;4991788;28;20030;-73
2022/02/08 00:22:58;;;;;;;11.93;2.03;;;;;;;3.25;100.00;102062.84;4988879;28;20779;-74
2022/02/08 00:25:24;;;;;;;13.13;2.42;;;;;;;3.28;100.00;102065.31;4970771;28;20477;-74
2022/02/08 00:27:49;;;;;;;14.30;2.28;;;;;;;3.31;100.00;102062.56;4987356;28;20034;-74
2022/02/08 00:30:16;;;;;;;17.67;2.65;;;;;;;3.25;100.00;102063.66;4993558;28;20050;-74
2022/02/08 00:32:41;;;;;;;16.50;3.00;;;;;;;3.34;100.00;102056.41;4961291;28;20523;-74
2022/02/08 00:35:07;;;;;;;19.70;2.28;;;;;;;3.27;100.00;102058.44;4978898;28;20039;-74
2022/02/08 00:37:33;;;;;;;10.88;1.92;;;;;;;3.25;100.00;102053.31;4998824;28;20034;-74
2022/02/08 00:40:00;;;;;;;20.55;2.30;;;;;;;3.29;100.00;102046.22;4960412;28;20063;-74
2022/02/08 00:42:26;;;;;;;16.65;2.13;;;;;;;3.33;100.00;102060.75;4990759;28;20076;-74
2022/02/08 00:45:06;;;;;;;19.13;2.33;;;;;;;3.23;100.00;102049.09;4977543;28;20134;-74
2022/02/08 00:47:39;;;;;;;20.05;2.63;;;;;;;3.21;100.00;102037.97;4961676;28;20085;-74
2022/02/08 00:50:07;;;;;;;14.60;2.20;;;;;;;3.32;100.00;102048.69;4977262;28;20041;-74
2022/02/08 00:52:35;;;;;;;13.43;2.65;;;;;;;3.30;100.00;102040.97;4980114;28;20392;-74
2022/02/08 00:55:01;;;;;;;16.58;2.10;;;;;;;3.40;100.00;102036.22;4972907;28;20048;-74
2022/02/08 00:57:27;;;;;;;12.15;2.03;;;;;;;3.37;100.00;102033.78;4977817;28;20042;-73
2022/02/08 00:59:52;;;;;;;13.48;2.65;;;;;;;3.35;100.00;102020.00;4965602;28;20532;-74
2022/02/08 01:02:19;;;;;;;15.73;2.58;;;;;;;3.35;100.00;102030.38;4961621;28;20540;-74
2022/02/08 01:04:52;;;;;;;19.52;2.95;;;;;;;3.46;100.00;102022.13;4987534;28;20069;-73
2022/02/08 01:07:18;;;;;;;23.23;2.70;;;;;;;3.45;100.00;102018.72;4989072;28;20030;-73
2022/02/08 01:10:05;;;;;;;15.43;2.63;;;;;;;3.46;100.00;102010.00;4968210;28;20125;-74
2022/02/08 01:12:33;;;;;;;14.55;2.50;;;;;;;3.55;100.00;102015.69;4967628;28;20048;-74
2022/02/08 01:14:59;;;;;;;17.52;2.50;;;;;;;3.42;100.00;102011.06;4983760;28;20038;-73
2022/02/08 01:17:26;;;;;;;15.73;2.83;;;;;;;3.49;100.00;102009.88;4980396;28;20041;-74
2022/02/08 01:20:07;;;;;;;18.48;2.60;;;;;;;3.49;100.00;102009.88;4969629;28;20334;-74
2022/02/08 01:22:36;;;;;;;22.70;3.10;;;;;;;3.53;100.00;102005.38;4992604;28;20056;-75
2022/02/08 01:25:04;;;;;;;14.52;2.60;;;;;;;3.51;100.00;102002.84;4989873;28;20038;-74
2022/02/08 01:27:32;;;;;;;21.88;2.85;;;;;;;3.58;100.00;101999.97;4969368;28;20026;-74
2022/02/08 01:30:01;;;;;;;18.63;2.38;;;;;;;3.55;100.00;101987.16;4974587;28;20528;-72
2022/02/08 01:37:51;;;;;;;14.13;2.65;;;;;;;3.58;100.00;101984.41;4983717;28;20453;-74
2022/02/08 01:40:29;;;;;;;21.02;2.92;;;;;;;3.52;100.00;101988.13;4979416;28;20085;-74
2022/02/08 01:48:15;;;;;;;22.60;2.90;;;;;;;3.41;100.00;101964.44;4981830;28;20123;-74
2022/02/08 01:50:42;;;;;;;16.23;2.60;;;;;;;3.40;100.00;101958.41;4973457;28;20536;-75
2022/02/08 01:53:08;;;;;;;19.27;2.65;;;;;;;3.41;100.00;101964.44;4982059;28;20034;-74
2022/02/08 01:55:37;;;;;;;14.70;3.00;;;;;;;3.46;100.00;101962.47;4983418;28;20027;-74
2022/02/08 01:58:03;;;;;;;15.63;2.90;;;;;;;3.44;100.00;101959.13;4965079;28;20512;-73
2022/02/08 02:00:30;;;;;;;17.88;3.08;;;;;;;3.45;100.00;101955.63;4981587;28;20100;-73
2022/02/08 02:02:56;;;;;;;15.68;3.00;;;;;;;3.46;100.00;101960.72;4974532;28;20540;-74
2022/02/08 02:05:30;;;;;;;20.58;3.53;;;;;;;3.35;100.00;101943.97;4949533;28;20078;-74
2022/02/08 02:07:57;;;;;;;14.68;3.40;;;;;;;3.47;100.00;101946.84;4991395;28;20046;-75
2022/02/08 02:10:25;;;;;;;26.13;4.22;;;;;;;3.49;100.00;101958.00;4976683;28;20647;-73
2022/02/08 02:12:57;;;;;;;25.00;3.60;;;;;;;3.43;100.00;101941.88;4985930;28;20034;-74
2022/02/08 02:15:28;;;;;;;22.48;4.05;;;;;;;3.46;100.00;101944.31;4985744;28;20045;-74
2022/02/08 02:17:55;;;;;;;22.20;4.45;;;;;;;3.43;100.00;101953.09;4980548;28;20031;-74
2022/02/08 02:20:23;;;;;;;13.98;3.65;;;;;;;3.41;100.00;101935.91;4987279;28;20031;-74
2022/02/08 02:22:49;;;;;;;23.77;3.83;;;;;;;3.38;100.00;101941.25;4982908;28;20029;-74
2022/02/08 02:25:41;;;;;;;28.33;4.20;;;;;;;3.32;100.00;101937.19;4984357;28;20053;-74
2022/02/08 02:28:07;;;;;;;15.80;4.40;;;;;;;3.34;100.00;101931.94;4983562;28;20057;-73
2022/02/08 02:30:34;;;;;;;27.27;4.93;;;;;;;3.33;100.00;101922.44;4967962;28;20505;-74
2022/02/08 02:33:04;;;;;;;20.65;4.90;;;;;;;3.19;100.00;101916.16;4960702;28;20057;-74
2022/02/08 02:35:31;;;;;;;21.50;5.68;;;;;;;3.26;100.00;101911.53;4965497;28;20042;-73
2022/02/08 02:38:03;;;;;;;24.98;6.07;;;;;;;3.30;100.00;101905.28;4976320;28;20118;-74
2022/02/08 02:40:31;;;;;;;21.08;5.22;;;;;;;3.27;100.00;101905.44;4965634;28;20456;-73
2022/02/08 02:42:59;;;;;;;23.80;5.75;;;;;;;3.25;100.00;101900.31;4990228;28;20544;-74
2022/02/08 02:45:26;;;;;;;21.85;6.22;;;;;;;3.23;100.00;101894.34;4987256;28;20045;-74
2022/02/08 02:47:54;;;;;;;24.90;6.35;;;;;;;3.27;100.00;101900.25;4975548;28;20044;-74
2022/02/08 02:50:24;;;;;;;16.30;5.32;;;;;;;3.29;100.00;101886.28;4966218;28;20038;-73
2022/02/08 02:52:50;;;;;;;23.90;5.88;;;;;;;3.36;100.00;101891.19;4985794;28;20442;-73
2022/02/08 02:55:17;;;;;;;22.27;6.32;;;;;;;3.41;100.00;101897.00;4977710;28;20042;-73
2022/02/08 02:57:47;;;;;;;21.60;6.85;;;;;;;3.41;100.00;101899.59;4977084;28;20447;-74
2022/02/08 03:00:27;;;;;;;24.23;7.22;;;;;;;3.49;100.00;101887.94;4985517;28;20062;-74
2022/02/08 03:03:20;;;;;;;21.08;7.43;;;;;;;3.48;100.00;101891.47;4972318;28;20042;-74
2022/02/08 03:06:08;;;;;;;27.52;7.65;;;;;;;3.60;100.00;101887.44;4971618;28;20514;-74
2022/02/08 03:19:31;;;;;;;21.58;8.30;;;;;;;3.93;100.00;101891.06;4969977;28;20043;-75
2022/02/08 03:21:57;;;;;;;27.70;8.80;;;;;;;3.97;100.00;101898.63;4955428;28;20073;-75
2022/02/08 03:24:23;;;;;;;30.48;8.65;;;;;;;3.96;100.00;101891.75;4968101;28;20058;-75
2022/02/08 03:26:51;;;;;;;35.60;9.23;;;;;;;4.00;100.00;101889.88;4961483;28;20035;-75
2022/02/08 03:29:16;;;;;;;26.75;9.48;;;;;;;4.02;100.00;101891.47;4986867;28;20080;-75
2022/02/08 03:31:42;;;;;;;31.70;9.70;;;;;;;4.06;100.00;101887.78;4968135;28;20041;-75
2022/02/08 03:34:10;;;;;;;24.65;10.48;;;;;;;3.94;100.00;101874.56;4970211;28;20045;-75
2022/02/08 03:36:40;;;;;;;30.13;11.02;;;;;;;4.01;100.00;101868.16;4969685;28;20045;-75
2022/02/08 03:39:17;;;;;;;22.73;10.93;;;;;;;4.14;100.00;101877.00;4991621;28;20471;-74
2022/02/08 03:41:54;;;;;;;26.98;11.13;;;;;;;4.24;100.00;101869.63;4982477;28;20027;-75
2022/02/08 03:44:29;;;;;;;27.00;10.43;;;;;;;4.23;100.00;101860.13;4985082;28;20157;-75
2022/02/08 03:46:55;;;;;;;34.15;10.63;;;;;;;4.28;100.00;101871.13;4984409;28;20046;-75
2022/02/08 03:49:22;;;;;;;25.75;10.63;;;;;;;4.26;100.00;101852.19;4983814;28;20034;-75
2022/02/08 03:51:54;;;;;;;30.45;11.10;;;;;;;4.27;100.00;101843.47;4990906;28;20034;-74
2022/02/08 03:54:20;;;;;;;26.08;9.63;;;;;;;4.32;100.00;101862.28;4981418;28;20037;-75
2022/02/08 03:56:47;;;;;;;32.85;10.18;;;;;;;4.35;100.00;101853.47;4971538;28;20038;-75
2022/02/08 03:59:15;;;;;;;30.52;11.13;;;;;;;4.36;100.00;101848.19;4974460;28;20404;-75
2022/02/08 04:07:02;;;;;;;31.05;11.45;;;;;;;4.49;100.00;101864.00;4984906;28;20042;-75
2022/02/08 04:09:27;;;;;;;29.45;12.18;;;;;;;4.45;100.00;101862.50;4983680;28;20521;-75
2022/02/08 04:12:00;;;;;;;26.17;12.43;;;;;;;4.55;100.00;101855.03;4979707;28;20049;-75
2022/02/08 04:14:53;;;;;;;23.90;12.65;;;;;;;4.55;100.00;101845.47;4986706;28;20034;-75
2022/02/08 04:17:36;;;;;;;28.80;12.32;;;;;;;4.59;100.00;101846.16;4989606;28;20074;-75
2022/02/08 04:31:23;;;;;;;29.17;12.75;;;;;;;4.62;100.00;101846.00;4981043;28;20140;-76
2022/02/08 04:42:04;;;;;;;34.60;15.48;;;;;;;4.76;100.00;101833.09;4986140;28;20046;-75
2022/02/08 04:44:42;;;;;;;42.45;17.00;;;;;;;4.76;100.00;101827.06;4982902;28;20117;-74
2022/02/08 04:47:15;;;;;;;32.08;15.93;;;;;;;4.79;100.00;101829.53;4981889;28;20049;-74
2022/02/08 04:49:40;;;;;;;41.58;17.73;;;;;;;4.81;100.00;101832.88;4995384;28;20058;-74
2022/02/08 04:52:09;;;;;;;36.38;16.30;;;;;;;4.81;100.00;101830.28;4971725;28;20081;-76
2022/02/08 04:54:53;;;;;;;42.40;17.17;;;;;;;4.85;100.00;101832.63;4993719;28;20165;-76
2022/02/08 04:57:27;;;;;;;38.05;17.15;;;;;;;4.91;100.00;101828.00;4982534;28;20466;-75
2022/02/08 05:26:51;;;;;;;36.60;17.48;;;;;;;4.99;100.00;101820.63;4990848;28;20474;-75
2022/02/08 05:45:07;;;;;;;34.42;19.58;;;;;;;5.36;100.00;101824.63;4986590;28;20414;-74
2022/02/08 05:47:40;;;;;;;37.13;18.85;;;;;;;5.36;100.00;101818.59;4982578;28;20038;-74
2022/02/08 05:50:22;;;;;;;36.03;19.13;;;;;;;5.36;100.00;101803.81;4993455;28;20058;-74
2022/02/08 05:53:03;;;;;;;41.85;20.38;;;;;;;5.33;100.00;101792.75;4987976;28;20800;-75
2022/02/08 05:55:34;;;;;;;40.63;20.83;;;;;;;5.33;100.00;101793.59;4984916;28;20050;-75
2022/02/08 05:57:59;;;;;;;41.50;20.67;;;;;;;5.33;100.00;101793.59;4987375;28;20113;-75
2022/02/08 06:00:29;;;;;;;40.53;22.42;;;;;;;5.30;100.00;101788.56;4981177;28;20110;-75
2022/02/08 06:03:19;;;;;;;45.20;21.27;;;;;;;5.32;100.00;101788.47;4965903;28;20120;-75
2022/02/08 06:05:53;;;;;;;44.10;23.17;;;;;;;5.32;100.00;101768.50;4968572;28;20551;-75
2022/02/08 06:08:18;;;;;;;44.75;22.92;;;;;;;5.33;100.00;101772.78;4992878;28;20563;-74
2022/02/08 06:10:51;;;;;;;46.78;22.90;;;;;;;5.37;100.00;101770.81;4982023;28;20034;-75
2022/02/08 06:13:18;;;;;;;46.55;23.17;;;;;;;5.31;100.00;101771.19;4959087;28;20037;-74
2022/02/08 06:15:46;;;;;;;51.92;25.10;;;;;;;5.37;100.00;101776.03;4972192;28;20125;-75
2022/02/08 06:18:12;;;;;;;51.17;24.38;;;;;;;5.41;100.00;101786.19;4974061;28;20038;-76
2022/02/08 06:20:37;;;;;;;45.42;22.85;;;;;;;5.46;100.00;101793.72;4983133;28;20061;-74
2022/02/08 06:23:03;;;;;;;45.67;23.60;;;;;;;5.43;100.00;101793.91;4985972;28;20397;-73
2022/02/08 06:25:30;;;;;;;46.40;24.20;;;;;;;5.43;100.00;101788.72;4982211;28;20045;-73
2022/02/08 06:27:55;;;;;;;50.63;24.23;;;;;;;5.42;100.00;101794.81;4984559;28;20041;-75
2022/02/08 06:30:23;;;;;;;54.50;26.08;;;;;;;5.48;100.00;101807.47;4972277;28;20054;-76
2022/02/08 06:32:51;;;;;;;48.53;25.33;;;;;;;5.49;100.00;101797.94;4969262;28;20027;-75
2022/02/08 06:35:29;;;;;;;53.25;26.25;;;;;;;5.51;100.00;101796.06;4970640;28;20037;-74
2022/02/08 06:37:57;;;;;;;52.35;25.40;;;;;;;5.44;100.00;101804.25;4968991;28;20500;-73
2022/02/08 06:40:23;;;;;;;52.65;26.95;;;;;;;5.53;100.00;101802.84;4979439;28;20606;-74
2022/02/08 06:42:48;;;;;;;56.17;27.60;;;;;;;5.54;100.00;101795.88;4988332;28;20022;-74
2022/02/08 06:45:17;;;;;;;58.88;28.50;;;;;;;5.52;100.00;101790.78;4985765;28;20411;-75
2022/02/08 06:47:50;;;;;;;54.38;27.63;;;;;;;5.55;100.00;101780.19;4969829;28;20038;-74
2022/02/08 06:50:16;;;;;;;58.40;27.45;;;;;;;5.62;100.00;101778.06;4985430;28;20511;-75
2022/02/08 06:52:42;;;;;;;58.10;26.75;;;;;;;5.67;100.00;101770.84;4989464;28;20030;-75
2022/02/08 06:55:09;;;;;;;52.22;26.98;;;;;;;5.68;100.00;101777.72;4969381;28;20516;-75
2022/02/08 06:57:49;;;;;;;52.55;27.25;;;;;;;5.73;100.00;101790.47;5002724;28;20847;-75
2022/02/08 07:00:20;;;;;;;53.83;25.27;;;;;;;5.78;100.00;101797.09;4986033;28;20085;-73
2022/02/08 07:02:45;;;;;;;63.75;28.25;;;;;;;5.80;100.00;101789.16;4988963;28;20413;-75
2022/02/08 07:05:11;;;;;;;55.63;27.23;;;;;;;5.81;100.00;101794.28;4989471;28;20046;-74
2022/02/08 07:07:37;;;;;;;57.33;28.58;;;;;;;5.82;100.00;101782.09;4979361;28;20549;-75
2022/02/08 07:10:04;;;;;;;51.80;26.10;;;;;;;5.87;100.00;101781.84;4981975;28;20045;-74
2022/02/08 07:12:29;;;;;;;61.55;27.83;;;;;;;5.88;100.00;101786.97;4986085;28;20520;-75
2022/02/08 07:14:56;;;;;;;59.65;27.13;;;;;;;5.93;100.00;101787.50;4975795;28;20122;-76
2022/02/08 07:17:22;;;;;;;52.70;25.88;;;;;;;5.97;100.00;101778.66;4990436;28;20259;-75
2022/02/08 07:19:47;;;;;;;54.38;27.27;;;;;;;6.00;100.00;101769.81;4970771;28;20038;-75
2022/02/08 07:22:13;;;;;;;48.80;25.35;;;;;;;6.03;100.00;101762.66;4980976;28;20040;-75
2022/02/08 07:24:39;;;;;;;57.05;26.10;;;;;;;6.08;100.00;101761.53;4977530;28;20477;-74
2022/02/08 07:27:04;;;;;;;50.60;25.58;;;;;;;6.03;100.00;101760.03;4993238;28;20045;-75
2022/02/08 07:29:32;;;;;;;54.30;25.65;;;;;;;6.16;100.00;101762.75;4985798;28;20035;-76
2022/02/08 07:31:59;;;;;;;48.83;24.58;;;;;;;6.14;100.00;101763.75;4983590;28;20555;-75
2022/02/08 07:34:36;;;;;;;50.88;24.40;;;;;;;6.18;100.00;101752.25;4976129;28;20042;-74
2022/02/08 07:37:15;;;;;;;49.70;24.48;;;;;;;6.15;100.00;101753.25;4992208;28;20038;-74
2022/02/08 07:39:46;;;;;;;60.03;26.00;;;;;;;6.17;100.00;101754.00;4982457;28;20038;-74
2022/02/08 07:42:12;;;;;;;57.13;27.20;;;;;;;6.20;100.00;101758.19;4975538;28;20026;-73
2022/02/08 07:44:37;;;;;;;57.03;26.48;;;;;;;6.24;100.00;101755.31;4987473;28;20548;-76
2022/02/08 07:47:06;;;;;;;54.13;25.55;;;;;;;6.22;100.00;101751.13;4971914;28;20051;-74
2022/02/08 07:49:33;;;;;;;53.45;26.00;;;;;;;6.24;100.00;101751.88;4976373;28;20535;-75
2022/02/08 07:51:59;;;;;;;53.03;25.60;;;;;;;6.24;100.00;101742.28;4992562;28;20034;-75
2022/02/08 07:54:25;;;;;;;59.08;27.33;;;;;;;6.26;100.00;101747.41;4988149;28;20040;-75
2022/02/08 07:56:50;;;;;;;63.42;27.20;;;;;;;6.30;100.00;101753.25;4995398;28;20116;-75
2022/02/08 07:59:16;;;;;;;55.45;25.95;;;;;;;6.24;100.00;101744.88;4975106;28;20086;-75
2022/02/08 08:01:42;;;;;;;53.20;25.67;;;;;;;6.32;100.00;101746.19;4973133;28;20046;-75
2022/02/08 08:04:07;;;;;;;55.55;27.15;;;;;;;6.31;100.00;101747.09;4971429;28;20058;-75
2022/02/08 08:06:34;;;;;;;54.55;26.10;;;;;;;6.37;100.00;101746.75;4972867;28;20141;-75
2022/02/08 08:08:59;;;;;;;55.45;26.88;;;;;;;6.42;100.00;101750.75;4985596;28;20568;-75
2022/02/08 08:11:27;;;;;;;51.33;27.25;;;;;;;6.45;100.00;101760.13;4969772;28;20094;-74
2022/02/08 08:14:02;;;;;;;54.35;27.38;;;;;;;6.43;100.00;101746.34;4987039;28;20039;-75
2022/02/08 08:19:07;;;;;;;48.60;25.48;;;;;;;6.47;100.00;101752.22;4995017;28;20031;-74
2022/02/08 08:21:33;;;;;;;47.00;25.40;;;;;;;6.50;100.00;101741.59;4990203;28;20038;-75
2022/02/08 08:24:01;;;;;;;48.60;26.38;;;;;;;6.47;100.00;101747.84;4990772;28;20058;-75
2022/02/08 08:26:27;;;;;;;45.78;26.35;;;;;;;6.51;100.00;101740.66;4971409;28;20046;-75
2022/02/08 08:28:52;;;;;;;49.65;25.55;;;;;;;6.55;100.00;101742.16;4990435;28;20504;-74
2022/02/08 08:31:18;;;;;;;54.47;26.30;;;;;;;6.49;100.00;101739.94;4978947;28;20038;-75
2022/02/08 08:33:44;;;;;;;53.90;26.10;;;;;;;6.53;100.00;101736.19;4985003;28;20045;-76
2022/02/08 08:36:10;;;;;;;51.25;26.42;;;;;;;6.57;100.00;101758.53;4990693;28;20129;-75
2022/02/08 08:38:36;;;;;;;49.35;25.98;;;;;;;6.58;100.00;101750.63;4989751;28;20031;-75
2022/02/08 08:48:43;;;;;;;50.08;24.90;;;;;;;6.66;100.00;101738.88;5000823;28;20066;-75
2022/02/08 08:53:39;;;;;;;41.60;24.13;;;;;;;6.73;100.00;101748.81;4989705;28;20035;-74
2022/02/08 08:56:05;;;;;;;53.60;25.02;;;;;;;6.76;100.00;101755.59;4991116;28;20038;-75
2022/02/08 08:58:31;;;;;;;47.85;24.58;;;;;;;6.78;100.00;101762.41;4989104;28;20485;-75
2022/02/08 09:00:59;;;;;;;51.63;23.85;;;;;;;6.86;100.00;101764.53;4997503;28;20038;-75
2022/02/08 09:03:25;;;;;;;49.63;24.17;;;;;;;6.88;100.00;101769.66;4970131;28;20181;-75
2022/02/08 09:05:52;;;;;;;45.80;22.52;;;;;;;6.90;100.00;101768.63;4980264;28;20121;-75
2022/02/08 09:08:18;;;;;;;47.33;21.65;;;;;;;6.93;100.00;101759.75;4980773;28;20493;-75
2022/02/08 09:10:58;;;;;;;50.15;22.67;;;;;;;6.92;100.00;101753.69;4985705;28;20058;-75
2022/02/08 09:13:30;;;;;;;44.30;22.73;;;;;;;6.98;100.00;101758.50;4958013;28;20027;-75
2022/02/08 09:16:03;;;;;;;;;;;;;;;6.98;100.00;101771.56;4980229;28;20413;-76
2022/02/08 09:29:05;;;;;;;28.98;15.65;;;;;;;7.19;100.00;101743.25;4967416;28;20030;-75
2022/02/08 09:31:32;;;;;;;35.38;15.57;;;;;;;7.25;100.00;101746.41;4979223;28;20093;-76
2022/02/08 09:33:58;;;;;;;26.63;16.00;;;;;;;7.20;100.00;101738.88;4985538;28;20521;-75
2022/02/08 09:36:25;;;;;;;31.88;14.93;;;;;;;7.30;100.00;101739.09;4986170;28;20062;-76
2022/02/08 09:38:55;;;;;;;31.40;13.95;;;;;;;7.32;100.00;101743.28;4982822;28;20093;-76
2022/02/08 09:41:23;;;;;;;26.02;14.13;;;;;;;7.29;100.00;101738.28;4987213;28;20034;-75
2022/02/08 09:43:50;;;;;;;29.20;13.48;;;;;;;7.32;100.00;101740.66;4984095;28;20417;-75
2022/02/08 09:46:17;;;;;;;24.80;12.55;;;;;;;7.38;100.00;101749.88;4970745;28;20522;-75
2022/02/08 09:48:49;;;;;;;27.67;12.52;;;;;;;7.34;100.00;101764.91;4978258;28;20109;-75
2022/02/08 09:51:17;;;;;;;23.23;11.40;;;;;;;7.36;100.00;101765.63;4964035;28;20189;-74
2022/02/08 09:53:43;;;;;;;19.98;10.50;;;;;;;7.39;100.00;101747.16;4973923;28;20420;-75
2022/02/08 09:56:11;;;;;;;22.20;11.32;;;;;;;7.41;100.00;101737.47;4983504;28;20053;-76
2022/02/08 09:58:37;;;;;;;22.95;10.55;;;;;;;7.48;100.00;101758.78;4980576;28;20045;-76
2022/02/08 10:01:13;;;;;;;19.67;9.73;;;;;;;7.48;100.00;101753.56;4956920;28;20556;-76
2022/02/08 10:03:57;;;;;;;22.02;9.00;;;;;;;7.48;100.00;101758.78;4990819;28;20023;-76
2022/02/08 10:06:24;;;;;;;25.88;8.90;;;;;;;7.51;100.00;101761.19;4962325;28;20046;-75
2022/02/08 10:08:58;;;;;;;25.98;9.30;;;;;;;7.48;100.00;101761.41;4970804;28;20072;-76
2022/02/08 10:11:29;;;;;;;19.45;8.23;;;;;;;7.51;100.00;101766.41;4995885;28;20536;-76
2022/02/08 10:22:07;;;;;;;16.48;7.55;;;;;;;7.61;100.00;101784.94;4966670;28;20045;-75
2022/02/08 10:24:36;;;;;;;18.55;7.15;;;;;;;7.57;100.00;101794.72;4970139;28;20030;-76
2022/02/08 10:27:17;;;;;;;20.77;7.35;;;;;;;7.57;100.00;101786.91;5004431;28;20047;-76
2022/02/08 10:29:59;;;;;;;19.05;7.60;;;;;;;7.51;100.00;101800.34;4996942;28;20027;-76
2022/02/08 10:38:07;;;;;;;17.95;8.20;;;;;;;7.57;100.00;101804.31;4988730;28;20158;-76
2022/02/08 10:40:37;;;;;;;19.98;9.15;;;;;;;7.52;100.00;101803.81;4976166;28;20398;-76
2022/02/08 10:43:05;;;;;;;25.45;8.90;;;;;;;7.55;100.00;101806.19;4983240;28;20133;-75
2022/02/08 10:45:33;;;;;;;20.48;7.38;;;;;;;7.54;100.00;101796.72;4971269;28;20034;-76
2022/02/08 10:48:04;;;;;;;24.60;8.88;;;;;;;7.56;100.00;101807.88;4981451;28;20031;-76
2022/02/08 10:50:32;;;;;;;19.48;8.18;;;;;;;7.48;100.00;101813.59;4981119;28;20033;-76
2022/02/08 10:53:01;;;;;;;24.35;8.35;;;;;;;7.49;100.00;101798.78;4977317;28;20050;-76
2022/02/08 10:58:26;;;;;;;22.42;7.70;;;;;;;7.56;100.00;101810.50;4984085;28;20033;-76
2022/02/08 11:01:02;;;;;;;25.63;7.40;;;;;;;7.54;100.00;101801.94;4986554;28;20037;-76
2022/02/08 11:03:42;;;;;;;18.88;7.07;;;;;;;7.53;100.00;101803.69;4982887;28;20038;-76
2022/02/08 11:06:22;;;;;;;23.08;6.97;;;;;;;7.57;100.00;101813.00;4976725;28;20030;-76
2022/02/08 11:09:15;;;;;;;16.27;6.90;;;;;;;7.56;100.00;101810.50;4986986;28;20065;-75
2022/02/08 11:14:47;;;;;;;20.88;6.50;;;;;;;7.48;100.00;101815.38;4982995;28;20030;-76
2022/02/08 11:20:21;;;;;;;19.58;6.93;;;;;;;7.48;100.00;101820.59;4988550;28;20495;-74
2022/02/08 11:22:57;;;;;;;21.23;5.93;;;;;;;7.53;100.00;101808.06;4995825;28;20468;-76
2022/02/08 11:25:32;;;;;;;24.52;7.35;;;;;;;7.56;100.00;101834.81;4968721;28;20149;-74
2022/02/08 11:28:34;;;;;;;22.83;7.10;;;;;;;7.64;100.00;101830.88;4988002;28;20073;-74
2022/02/08 11:42:52;;;;;;;19.35;5.72;;;;;;;7.59;100.00;101821.56;4994589;28;20070;-74
2022/02/08 11:47:26;;;;;;;19.88;6.05;;;;;;;7.53;100.00;101821.13;4986332;28;20057;-74
2022/02/08 11:52:49;;;;;;;23.13;6.28;;;;;;;7.58;100.00;101834.72;4983486;28;20039;-75
2022/02/08 11:55:43;;;;;;;21.27;5.90;;;;;;;7.55;100.00;101837.53;4989116;28;20030;-75
2022/02/08 11:58:28;;;;;;;20.95;6.25;;;;;;;7.62;100.00;101830.97;4975129;28;20038;-73
2022/02/08 12:01:03;;;;;;;20.67;5.28;;;;;;;7.63;100.00;101826.56;4987076;28;20039;-75
2022/02/08 12:08:59;;;;;;;19.90;5.47;;;;;;;7.65;100.00;101833.41;4983582;28;20050;-76
2022/02/08 12:12:04;;;;;;;20.48;5.47;;;;;;;7.66;100.00;101834.22;4990353;28;20046;-74
2022/02/08 12:31:31;;;;;;;27.23;4.97;;;;;;;7.74;100.00;101861.53;4990352;28;20034;-74
2022/02/08 12:59:02;;;;;;;13.95;4.70;;;;;;;7.62;100.00;101864.91;4970884;28;20046;-75
2022/02/08 13:18:37;;;;;;;17.05;3.85;;;;;;;7.68;100.00;101879.34;4977522;28;20034;-75
2022/02/08 14:01:54;;;;;;;10.50;2.92;;;;;;;7.62;100.00;101892.81;4992270;28;20382;-74
2022/02/08 14:15:21;;;;;;;4.35;2.33;;;;;;;7.64;100.00;101902.22;4985723;28;20034;-75
2022/02/08 14:17:58;;;;;;;12.10;2.42;;;;;;;7.71;100.00;101898.28;4984870;28;20054;-74
2022/02/08 14:23:07;;;;;;;7.25;2.22;;;;;;;7.71;100.00;101908.72;4989435;28;20517;-74
2022/02/08 14:25:48;;;;;;;6.97;2.22;;;;;;;7.75;100.00;101907.56;4981273;28;20043;-74
2022/02/08 14:33:49;;;;;;;5.13;2.70;;;;;;;7.61;100.00;101915.47;4974717;28;20038;-75
2022/02/08 14:36:44;;;;;;;7.20;2.10;;;;;;;7.58;100.00;101916.50;4964925;28;20393;-74
2022/02/08 15:08:55;;;;;;;3.92;1.65;;;;;;;7.69;100.00;101917.59;4988782;28;20053;-75
2022/02/08 15:11:21;;;;;;;3.45;1.55;;;;;;;7.66;100.00;101921.22;4986351;28;20113;-75
2022/02/08 15:13:50;;;;;;;2.88;1.48;;;;;;;7.73;100.00;101919.91;4985379;28;20038;-75
2022/02/08 15:18:41;;;;;;;3.65;1.40;;;;;;;7.70;100.00;101927.09;4968059;28;20057;-75
2022/02/08 15:21:15;;;;;;;5.53;1.40;;;;;;;7.68;100.00;101928.97;4985499;28;20042;-76
2022/02/08 15:23:41;;;;;;;1.50;1.40;;;;;;;7.66;100.00;101925.63;4967019;28;20456;-76
2022/02/08 15:26:07;;;;;;;4.40;1.30;;;;;;;7.71;100.00;101926.16;4959162;28;20515;-75
2022/02/08 15:28:33;;;;;;;4.70;1.48;;;;;;;7.58;100.00;101936.56;4973176;28;20030;-76
2022/02/08 15:30:59;;;;;;;4.78;2.05;;;;;;;7.58;100.00;101934.78;4963156;28;20180;-75
2022/02/08 15:33:26;;;;;;;3.88;1.55;;;;;;;7.62;100.00;101937.22;4974202;28;20125;-74
2022/02/08 15:35:53;;;;;;;3.78;2.00;;;;;;;7.60;100.00;101940.75;4988636;28;20030;-76
2022/02/08 15:38:21;;;;;;;6.72;1.58;;;;;;;7.59;100.00;101946.91;4957663;28;20121;-75
2022/02/08 15:40:50;;;;;;;3.53;1.80;;;;;;;7.56;100.00;101959.31;4966197;28;20034;-74
2022/02/08 15:43:16;;;;;;;5.45;2.08;;;;;;;7.58;100.00;101947.84;4970350;28;20085;-74
2022/02/08 15:45:51;;;;;;;3.38;1.85;;;;;;;7.52;100.00;101939.56;4970974;28;20027;-74
2022/02/08 15:48:22;;;;;;;2.65;1.88;;;;;;;7.57;100.00;101947.94;4982214;28;20418;-76
2022/02/08 15:51:00;;;;;;;3.63;1.60;;;;;;;7.58;100.00;101957.44;4953420;28;20060;-74
2022/02/08 16:07:06;;;;;;;5.03;2.17;;;;;;;7.49;100.00;101979.75;4970489;28;20038;-75
2022/02/08 16:09:47;;;;;;;6.78;2.05;;;;;;;7.49;100.00;101974.53;4964938;28;20049;-76
2022/02/08 16:12:38;;;;;;;4.85;2.35;;;;;;;7.39;100.00;101973.44;4979688;28;20096;-75
2022/02/08 16:20:42;;;;;;;4.68;2.50;;;;;;;7.38;100.00;101992.63;4972736;28;20599;-75
2022/02/08 16:26:13;;;;;;;4.72;2.20;;;;;;;7.44;100.00;101991.41;4975714;28;20026;-75
2022/02/08 16:28:55;;;;;;;2.92;2.08;;;;;;;7.32;100.00;101996.44;4974307;28;20467;-75
2022/02/08 16:45:58;;;;;;;3.25;1.92;;;;;;;7.32;100.00;102008.66;4970937;28;20287;-75
2022/02/08 16:56:07;;;;;;;2.88;2.30;;;;;;;7.19;100.00;102019.84;4983822;28;20039;-75
2022/02/08 16:58:22;;;;;;;4.50;2.30;;;;;;;7.25;100.00;102021.25;4970552;28;20054;-75
2022/02/08 17:00:49;;;;;;;3.22;1.92;;;;;;;7.15;100.00;102030.56;4968855;28;20034;-75
2022/02/08 17:03:22;;;;;;;7.38;2.03;;;;;;;7.15;100.00;102027.97;4971294;28;20030;-75
2022/02/08 17:05:48;;;;;;;4.40;1.95;;;;;;;7.18;100.00;102038.22;4961349;28;20037;-75
2022/02/08 17:08:15;;;;;;;2.15;1.40;;;;;;;7.13;100.00;102035.88;4990311;28;20034;-75
2022/02/08 17:10:46;;;;;;;2.95;1.58;;;;;;;7.09;100.00;102028.34;4967504;28;20034;-75
2022/02/08 17:15:59;;;;;;;7.03;2.10;;;;;;;7.07;100.00;102028.44;4975101;28;20039;-75
2022/02/08 17:48:03;;;;;;;4.60;2.30;;;;;;;6.87;100.00;102060.91;4966248;28;20042;-76
2022/02/08 17:50:29;;;;;;;7.35;2.60;;;;;;;6.91;100.00;102058.97;4949747;28;20568;-76
2022/02/08 17:52:55;;;;;;;6.28;2.55;;;;;;;6.99;100.00;102060.19;4961118;28;20054;-76
2022/02/08 17:55:22;;;;;;;5.60;2.50;;;;;;;6.92;100.00;102071.09;4969474;28;20046;-75